sensor_id;sensor_type;location;lat;lon;timestamp;P1;durP1;ratioP1;P2;durP2;ratioP2
67564;SDS011;54393;53.556;49.216;2022-08-21T00:03:04;8.10;;;7.05;;
67564;SDS011;54393;53.556;49.216;2022-08-21T00:05:31;7.87;;;7.07;;
67564;SDS011;54393;53.556;49.216;2022-08-21T00:08:00;8.07;;;6.65;;
67564;SDS011;54393;53.556;49.216;2022-08-21T00:10:27;7.30;;;6.60;;
67564;SDS011;54393;53.556;49.216;2022-08-21T00:12:54;7.50;;;6.80;;
67564;SDS011;54393;53.556;49.216;2022-08-21T00:15:23;8.25;;;7.00;;
67564;SDS011;54393;53.556;49.216;2022-08-21T00:17:52;7.62;;;6.80;;
67564;SDS011;54393;53.556;49.216;2022-08-21T00:20:19;7.50;;;6.70;;
67564;SDS011;54393;53.556;49.216;2022-08-21T00:22:46;7.28;;;6.45;;
67564;SDS011;54393;53.556;49.216;2022-08-21T00:25:13;7.10;;;6.43;;
67564;SDS011;54393;53.556;49.216;2022-08-21T00:27:40;6.87;;;6.07;;
67564;SDS011;54393;53.556;49.216;2022-08-21T00:30:08;8.77;;;6.68;;
67564;SDS011;54393;53.556;49.216;2022-08-21T00:32:36;7.00;;;6.37;;
67564;SDS011;54393;53.556;49.216;2022-08-21T00:35:04;8.82;;;6.30;;
67564;SDS011;54393;53.556;49.216;2022-08-21T00:37:31;6.87;;;5.87;;
67564;SDS011;54393;53.556;49.216;2022-08-21T00:39:58;6.15;;;5.55;;
67564;SDS011;54393;53.556;49.216;2022-08-21T00:42:25;6.00;;;5.40;;
67564;SDS011;54393;53.556;49.216;2022-08-21T00:44:51;6.57;;;5.97;;
67564;SDS011;54393;53.556;49.216;2022-08-21T00:47:18;6.25;;;5.75;;
67564;SDS011;54393;53.556;49.216;2022-08-21T00:49:45;7.32;;;6.25;;
67564;SDS011;54393;53.556;49.216;2022-08-21T00:52:13;6.55;;;5.72;;
67564;SDS011;54393;53.556;49.216;2022-08-21T00:54:43;6.57;;;5.90;;
67564;SDS011;54393;53.556;49.216;2022-08-21T00:57:13;6.12;;;5.55;;
67564;SDS011;54393;53.556;49.216;2022-08-21T00:59:42;5.53;;;5.10;;
67564;SDS011;54393;53.556;49.216;2022-08-21T01:02:11;6.60;;;5.93;;
67564;SDS011;54393;53.556;49.216;2022-08-21T01:04:38;6.10;;;5.30;;
67564;SDS011;54393;53.556;49.216;2022-08-21T01:07:06;5.72;;;5.22;;
67564;SDS011;54393;53.556;49.216;2022-08-21T01:09:32;6.25;;;5.32;;
67564;SDS011;54393;53.556;49.216;2022-08-21T01:11:59;6.15;;;5.22;;
67564;SDS011;54393;53.556;49.216;2022-08-21T01:14:26;6.68;;;5.53;;
67564;SDS011;54393;53.556;49.216;2022-08-21T01:16:53;5.53;;;5.03;;
67564;SDS011;54393;53.556;49.216;2022-08-21T01:19:20;5.57;;;4.80;;
67564;SDS011;54393;53.556;49.216;2022-08-21T01:21:47;5.78;;;5.22;;
67564;SDS011;54393;53.556;49.216;2022-08-21T01:24:14;5.70;;;5.07;;
67564;SDS011;54393;53.556;49.216;2022-08-21T01:26:41;5.40;;;4.90;;
67564;SDS011;54393;53.556;49.216;2022-08-21T01:31:57;6.62;;;5.12;;
67564;SDS011;54393;53.556;49.216;2022-08-21T01:34:24;5.53;;;5.03;;
67564;SDS011;54393;53.556;49.216;2022-08-21T01:36:50;5.18;;;4.78;;
67564;SDS011;54393;53.556;49.216;2022-08-21T01:39:17;5.22;;;4.80;;
67564;SDS011;54393;53.556;49.216;2022-08-21T01:41:43;4.82;;;4.40;;
67564;SDS011;54393;53.556;49.216;2022-08-21T01:44:10;4.93;;;4.50;;
67564;SDS011;54393;53.556;49.216;2022-08-21T01:46:36;5.03;;;4.62;;
67564;SDS011;54393;53.556;49.216;2022-08-21T01:49:03;5.40;;;4.90;;
67564;SDS011;54393;53.556;49.216;2022-08-21T01:51:30;5.45;;;4.55;;
67564;SDS011;54393;53.556;49.216;2022-08-21T01:53:56;4.50;;;4.10;;
67564;SDS011;54393;53.556;49.216;2022-08-21T01:56:22;4.70;;;4.30;;
67564;SDS011;54393;53.556;49.216;2022-08-21T01:58:51;4.85;;;4.45;;
67564;SDS011;54393;53.556;49.216;2022-08-21T02:01:17;4.70;;;4.25;;
67564;SDS011;54393;53.556;49.216;2022-08-21T02:03:44;4.47;;;4.07;;
67564;SDS011;54393;53.556;49.216;2022-08-21T02:06:15;4.50;;;4.10;;
67564;SDS011;54393;53.556;49.216;2022-08-21T02:08:43;4.30;;;4.00;;
67564;SDS011;54393;53.556;49.216;2022-08-21T02:11:09;5.07;;;4.57;;
67564;SDS011;54393;53.556;49.216;2022-08-21T02:13:36;4.75;;;4.18;;
67564;SDS011;54393;53.556;49.216;2022-08-21T02:16:02;4.50;;;4.10;;
67564;SDS011;54393;53.556;49.216;2022-08-21T02:18:29;3.97;;;3.67;;
67564;SDS011;54393;53.556;49.216;2022-08-21T02:20:56;4.22;;;3.80;;
67564;SDS011;54393;53.556;49.216;2022-08-21T02:23:23;4.60;;;4.20;;
67564;SDS011;54393;53.556;49.216;2022-08-21T02:25:49;4.35;;;3.95;;
67564;SDS011;54393;53.556;49.216;2022-08-21T02:28:16;4.20;;;3.90;;
67564;SDS011;54393;53.556;49.216;2022-08-21T02:30:44;4.07;;;3.67;;
67564;SDS011;54393;53.556;49.216;2022-08-21T02:33:11;4.05;;;3.75;;
67564;SDS011;54393;53.556;49.216;2022-08-21T02:35:39;4.28;;;3.85;;
67564;SDS011;54393;53.556;49.216;2022-08-21T02:38:10;4.75;;;4.18;;
67564;SDS011;54393;53.556;49.216;2022-08-21T02:40:45;3.83;;;3.55;;
67564;SDS011;54393;53.556;49.216;2022-08-21T02:43:13;3.78;;;3.47;;
67564;SDS011;54393;53.556;49.216;2022-08-21T02:45:40;4.18;;;3.78;;
67564;SDS011;54393;53.556;49.216;2022-08-21T02:48:08;3.50;;;3.30;;
67564;SDS011;54393;53.556;49.216;2022-08-21T02:50:37;4.18;;;3.87;;
67564;SDS011;54393;53.556;49.216;2022-08-21T02:53:07;3.80;;;3.50;;
67564;SDS011;54393;53.556;49.216;2022-08-21T02:55:35;3.83;;;3.53;;
67564;SDS011;54393;53.556;49.216;2022-08-21T02:58:03;4.25;;;3.85;;
67564;SDS011;54393;53.556;49.216;2022-08-21T03:00:30;3.95;;;3.65;;
67564;SDS011;54393;53.556;49.216;2022-08-21T03:02:58;3.60;;;3.30;;
67564;SDS011;54393;53.556;49.216;2022-08-21T03:05:25;3.90;;;3.60;;
67564;SDS011;54393;53.556;49.216;2022-08-21T03:07:53;3.20;;;2.95;;
67564;SDS011;54393;53.556;49.216;2022-08-21T03:10:20;4.32;;;3.90;;
67564;SDS011;54393;53.556;49.216;2022-08-21T03:12:47;4.25;;;3.40;;
67564;SDS011;54393;53.556;49.216;2022-08-21T03:15:16;3.60;;;3.30;;
67564;SDS011;54393;53.556;49.216;2022-08-21T03:17:44;3.72;;;3.33;;
67564;SDS011;54393;53.556;49.216;2022-08-21T03:20:18;3.53;;;3.20;;
67564;SDS011;54393;53.556;49.216;2022-08-21T03:22:45;3.30;;;3.03;;
67564;SDS011;54393;53.556;49.216;2022-08-21T03:25:11;3.78;;;3.47;;
67564;SDS011;54393;53.556;49.216;2022-08-21T03:27:38;4.28;;;3.20;;
67564;SDS011;54393;53.556;49.216;2022-08-21T03:30:05;3.87;;;3.58;;
67564;SDS011;54393;53.556;49.216;2022-08-21T03:32:33;3.30;;;3.10;;
67564;SDS011;54393;53.556;49.216;2022-08-21T03:35:00;3.20;;;3.00;;
67564;SDS011;54393;53.556;49.216;2022-08-21T03:37:27;3.53;;;3.28;;
67564;SDS011;54393;53.556;49.216;2022-08-21T03:39:53;3.35;;;3.05;;
67564;SDS011;54393;53.556;49.216;2022-08-21T03:42:20;4.50;;;3.25;;
67564;SDS011;54393;53.556;49.216;2022-08-21T03:44:46;3.10;;;2.90;;
67564;SDS011;54393;53.556;49.216;2022-08-21T03:47:13;3.42;;;3.12;;
67564;SDS011;54393;53.556;49.216;2022-08-21T03:49:40;3.72;;;3.42;;
67564;SDS011;54393;53.556;49.216;2022-08-21T03:52:06;3.17;;;2.97;;
67564;SDS011;54393;53.556;49.216;2022-08-21T03:54:33;3.20;;;3.00;;
67564;SDS011;54393;53.556;49.216;2022-08-21T03:56:59;3.17;;;2.97;;
67564;SDS011;54393;53.556;49.216;2022-08-21T03:59:26;3.10;;;2.90;;
67564;SDS011;54393;53.556;49.216;2022-08-21T04:02:00;4.35;;;3.25;;
67564;SDS011;54393;53.556;49.216;2022-08-21T04:04:29;3.35;;;3.05;;
67564;SDS011;54393;53.556;49.216;2022-08-21T04:06:56;3.78;;;3.47;;
67564;SDS011;54393;53.556;49.216;2022-08-21T04:09:23;3.45;;;3.15;;
67564;SDS011;54393;53.556;49.216;2022-08-21T04:11:50;3.47;;;3.17;;
67564;SDS011;54393;53.556;49.216;2022-08-21T04:14:16;4.00;;;3.17;;
67564;SDS011;54393;53.556;49.216;2022-08-21T04:16:43;3.85;;;3.22;;
67564;SDS011;54393;53.556;49.216;2022-08-21T04:19:10;3.53;;;3.22;;
67564;SDS011;54393;53.556;49.216;2022-08-21T04:21:38;3.47;;;3.10;;
67564;SDS011;54393;53.556;49.216;2022-08-21T04:24:06;3.22;;;3.00;;
67564;SDS011;54393;53.556;49.216;2022-08-21T04:26:37;2.85;;;2.65;;
67564;SDS011;54393;53.556;49.216;2022-08-21T04:29:04;3.45;;;3.22;;
67564;SDS011;54393;53.556;49.216;2022-08-21T04:31:34;3.70;;;3.10;;
67564;SDS011;54393;53.556;49.216;2022-08-21T04:34:04;3.30;;;3.10;;
67564;SDS011;54393;53.556;49.216;2022-08-21T04:36:31;3.58;;;3.08;;
67564;SDS011;54393;53.556;49.216;2022-08-21T04:38:58;3.72;;;3.42;;
67564;SDS011;54393;53.556;49.216;2022-08-21T04:41:25;3.53;;;3.10;;
67564;SDS011;54393;53.556;49.216;2022-08-21T04:43:51;2.80;;;2.60;;
67564;SDS011;54393;53.556;49.216;2022-08-21T04:46:19;3.55;;;3.25;;
67564;SDS011;54393;53.556;49.216;2022-08-21T04:48:46;3.15;;;2.92;;
67564;SDS011;54393;53.556;49.216;2022-08-21T04:54:07;3.50;;;3.20;;
67564;SDS011;54393;53.556;49.216;2022-08-21T04:56:40;3.20;;;3.00;;
67564;SDS011;54393;53.556;49.216;2022-08-21T04:59:35;3.00;;;2.80;;
67564;SDS011;54393;53.556;49.216;2022-08-21T05:02:06;3.17;;;2.97;;
67564;SDS011;54393;53.556;49.216;2022-08-21T05:04:35;3.28;;;2.97;;
67564;SDS011;54393;53.556;49.216;2022-08-21T05:07:04;3.40;;;3.20;;
67564;SDS011;54393;53.556;49.216;2022-08-21T05:09:32;3.75;;;3.45;;
67564;SDS011;54393;53.556;49.216;2022-08-21T05:12:00;3.75;;;3.42;;
67564;SDS011;54393;53.556;49.216;2022-08-21T05:14:27;3.28;;;2.97;;
67564;SDS011;54393;53.556;49.216;2022-08-21T05:16:54;3.20;;;3.00;;
67564;SDS011;54393;53.556;49.216;2022-08-21T05:19:20;3.92;;;3.55;;
67564;SDS011;54393;53.556;49.216;2022-08-21T05:21:46;3.55;;;3.25;;
67564;SDS011;54393;53.556;49.216;2022-08-21T05:24:13;4.68;;;3.35;;
67564;SDS011;54393;53.556;49.216;2022-08-21T05:26:41;4.07;;;3.60;;
67564;SDS011;54393;53.556;49.216;2022-08-21T05:29:07;3.78;;;3.47;;
67564;SDS011;54393;53.556;49.216;2022-08-21T05:31:34;4.25;;;3.47;;
67564;SDS011;54393;53.556;49.216;2022-08-21T05:34:00;3.08;;;2.80;;
67564;SDS011;54393;53.556;49.216;2022-08-21T05:36:27;3.78;;;3.47;;
67564;SDS011;54393;53.556;49.216;2022-08-21T05:38:53;3.97;;;3.67;;
67564;SDS011;54393;53.556;49.216;2022-08-21T05:41:19;4.80;;;3.40;;
67564;SDS011;54393;53.556;49.216;2022-08-21T05:43:46;4.60;;;3.92;;
67564;SDS011;54393;53.556;49.216;2022-08-21T05:46:13;3.87;;;3.58;;
67564;SDS011;54393;53.556;49.216;2022-08-21T05:48:39;4.40;;;3.50;;
67564;SDS011;54393;53.556;49.216;2022-08-21T05:51:07;5.43;;;3.53;;
67564;SDS011;54393;53.556;49.216;2022-08-21T05:53:35;3.55;;;3.22;;
67564;SDS011;54393;53.556;49.216;2022-08-21T05:56:03;3.80;;;3.50;;
67564;SDS011;54393;53.556;49.216;2022-08-21T05:58:30;3.83;;;3.53;;
67564;SDS011;54393;53.556;49.216;2022-08-21T06:00:58;4.07;;;3.78;;
67564;SDS011;54393;53.556;49.216;2022-08-21T06:03:26;3.72;;;3.40;;
67564;SDS011;54393;53.556;49.216;2022-08-21T06:05:54;3.45;;;3.17;;
67564;SDS011;54393;53.556;49.216;2022-08-21T06:08:22;4.05;;;3.75;;
67564;SDS011;54393;53.556;49.216;2022-08-21T06:10:49;3.53;;;3.22;;
67564;SDS011;54393;53.556;49.216;2022-08-21T06:13:16;3.58;;;3.28;;
67564;SDS011;54393;53.556;49.216;2022-08-21T06:15:43;3.87;;;3.58;;
67564;SDS011;54393;53.556;49.216;2022-08-21T06:18:10;3.70;;;3.40;;
67564;SDS011;54393;53.556;49.216;2022-08-21T06:20:37;4.37;;;3.70;;
67564;SDS011;54393;53.556;49.216;2022-08-21T06:23:05;4.00;;;3.70;;
67564;SDS011;54393;53.556;49.216;2022-08-21T06:25:32;3.80;;;3.50;;
67564;SDS011;54393;53.556;49.216;2022-08-21T06:28:03;3.95;;;3.65;;
67564;SDS011;54393;53.556;49.216;2022-08-21T06:30:31;3.58;;;3.28;;
67564;SDS011;54393;53.556;49.216;2022-08-21T06:32:58;3.85;;;3.55;;
67564;SDS011;54393;53.556;49.216;2022-08-21T06:35:25;3.70;;;3.40;;
67564;SDS011;54393;53.556;49.216;2022-08-21T06:37:54;3.70;;;3.40;;
67564;SDS011;54393;53.556;49.216;2022-08-21T06:40:21;4.87;;;3.37;;
67564;SDS011;54393;53.556;49.216;2022-08-21T06:42:47;3.62;;;3.33;;
67564;SDS011;54393;53.556;49.216;2022-08-21T06:45:14;3.97;;;3.30;;
67564;SDS011;54393;53.556;49.216;2022-08-21T06:47:40;3.55;;;3.25;;
67564;SDS011;54393;53.556;49.216;2022-08-21T06:50:07;3.90;;;3.60;;
67564;SDS011;54393;53.556;49.216;2022-08-21T06:52:34;3.33;;;3.08;;
67564;SDS011;54393;53.556;49.216;2022-08-21T06:55:01;4.15;;;3.70;;
67564;SDS011;54393;53.556;49.216;2022-08-21T06:57:32;3.53;;;3.25;;
67564;SDS011;54393;53.556;49.216;2022-08-21T06:59:59;4.07;;;3.78;;
67564;SDS011;54393;53.556;49.216;2022-08-21T07:02:26;3.87;;;3.55;;
67564;SDS011;54393;53.556;49.216;2022-08-21T07:04:53;5.35;;;3.72;;
67564;SDS011;54393;53.556;49.216;2022-08-21T07:07:19;3.83;;;3.50;;
67564;SDS011;54393;53.556;49.216;2022-08-21T07:09:46;4.90;;;3.60;;
67564;SDS011;54393;53.556;49.216;2022-08-21T07:12:12;3.90;;;3.50;;
67564;SDS011;54393;53.556;49.216;2022-08-21T07:14:38;3.78;;;3.47;;
67564;SDS011;54393;53.556;49.216;2022-08-21T07:17:05;4.40;;;3.83;;
67564;SDS011;54393;53.556;49.216;2022-08-21T07:19:31;4.25;;;3.60;;
67564;SDS011;54393;53.556;49.216;2022-08-21T07:21:59;3.42;;;3.10;;
67564;SDS011;54393;53.556;49.216;2022-08-21T07:24:27;4.70;;;3.47;;
67564;SDS011;54393;53.556;49.216;2022-08-21T07:26:54;4.15;;;3.75;;
67564;SDS011;54393;53.556;49.216;2022-08-21T07:29:20;3.78;;;3.47;;
67564;SDS011;54393;53.556;49.216;2022-08-21T07:31:47;4.30;;;3.33;;
67564;SDS011;54393;53.556;49.216;2022-08-21T07:34:13;3.75;;;3.35;;
67564;SDS011;54393;53.556;49.216;2022-08-21T07:36:40;4.30;;;3.90;;
67564;SDS011;54393;53.556;49.216;2022-08-21T07:39:06;3.37;;;3.08;;
67564;SDS011;54393;53.556;49.216;2022-08-21T07:41:33;3.45;;;3.25;;
67564;SDS011;54393;53.556;49.216;2022-08-21T07:44:00;3.83;;;3.50;;
67564;SDS011;54393;53.556;49.216;2022-08-21T07:46:27;3.40;;;3.10;;
67564;SDS011;54393;53.556;49.216;2022-08-21T07:48:53;3.90;;;3.60;;
67564;SDS011;54393;53.556;49.216;2022-08-21T07:51:21;3.65;;;3.40;;
67564;SDS011;54393;53.556;49.216;2022-08-21T07:53:51;4.18;;;3.78;;
67564;SDS011;54393;53.556;49.216;2022-08-21T07:56:19;3.70;;;3.50;;
67564;SDS011;54393;53.556;49.216;2022-08-21T07:58:45;3.37;;;3.08;;
67564;SDS011;54393;53.556;49.216;2022-08-21T08:01:12;3.97;;;3.67;;
67564;SDS011;54393;53.556;49.216;2022-08-21T08:03:39;4.37;;;3.40;;
67564;SDS011;54393;53.556;49.216;2022-08-21T08:06:06;4.35;;;3.70;;
67564;SDS011;54393;53.556;49.216;2022-08-21T08:08:40;3.72;;;3.42;;
67564;SDS011;54393;53.556;49.216;2022-08-21T08:11:07;3.67;;;3.37;;
67564;SDS011;54393;53.556;49.216;2022-08-21T08:13:42;3.22;;;3.03;;
67564;SDS011;54393;53.556;49.216;2022-08-21T08:16:10;3.67;;;3.37;;
67564;SDS011;54393;53.556;49.216;2022-08-21T08:18:37;3.50;;;3.30;;
67564;SDS011;54393;53.556;49.216;2022-08-21T08:21:03;4.25;;;3.72;;
67564;SDS011;54393;53.556;49.216;2022-08-21T08:23:30;3.90;;;3.47;;
67564;SDS011;54393;53.556;49.216;2022-08-21T08:25:58;3.70;;;3.40;;
67564;SDS011;54393;53.556;49.216;2022-08-21T08:28:25;3.90;;;3.60;;
67564;SDS011;54393;53.556;49.216;2022-08-21T08:30:52;4.05;;;3.75;;
67564;SDS011;54393;53.556;49.216;2022-08-21T08:33:18;3.72;;;3.50;;
67564;SDS011;54393;53.556;49.216;2022-08-21T08:35:49;3.87;;;3.58;;
67564;SDS011;54393;53.556;49.216;2022-08-21T08:38:16;3.95;;;3.58;;
67564;SDS011;54393;53.556;49.216;2022-08-21T08:40:51;3.75;;;3.45;;
67564;SDS011;54393;53.556;49.216;2022-08-21T08:43:22;4.28;;;3.97;;
67564;SDS011;54393;53.556;49.216;2022-08-21T08:45:49;4.47;;;3.80;;
67564;SDS011;54393;53.556;49.216;2022-08-21T08:48:31;3.37;;;3.17;;
67564;SDS011;54393;53.556;49.216;2022-08-21T08:51:04;3.83;;;3.53;;
67564;SDS011;54393;53.556;49.216;2022-08-21T08:53:42;3.83;;;3.53;;
67564;SDS011;54393;53.556;49.216;2022-08-21T08:56:13;3.30;;;3.10;;
67564;SDS011;54393;53.556;49.216;2022-08-21T08:58:40;3.58;;;3.28;;
67564;SDS011;54393;53.556;49.216;2022-08-21T09:01:18;3.70;;;3.40;;
67564;SDS011;54393;53.556;49.216;2022-08-21T09:03:46;4.00;;;3.70;;
67564;SDS011;54393;53.556;49.216;2022-08-21T09:09:22;3.80;;;3.55;;
67564;SDS011;54393;53.556;49.216;2022-08-21T09:12:02;4.05;;;3.75;;
67564;SDS011;54393;53.556;49.216;2022-08-21T09:25:58;4.20;;;2.85;;
67564;SDS011;54393;53.556;49.216;2022-08-21T09:28:33;3.55;;;3.35;;
67564;SDS011;54393;53.556;49.216;2022-08-21T09:31:02;3.62;;;3.33;;
67564;SDS011;54393;53.556;49.216;2022-08-21T09:33:33;3.65;;;3.35;;
67564;SDS011;54393;53.556;49.216;2022-08-21T09:35:59;3.12;;;2.92;;
67564;SDS011;54393;53.556;49.216;2022-08-21T09:38:33;3.75;;;3.45;;
67564;SDS011;54393;53.556;49.216;2022-08-21T09:41:03;3.67;;;3.37;;
67564;SDS011;54393;53.556;49.216;2022-08-21T09:43:32;3.28;;;3.03;;
67564;SDS011;54393;53.556;49.216;2022-08-21T09:48:54;3.42;;;3.22;;
67564;SDS011;54393;53.556;49.216;2022-08-21T09:51:29;3.62;;;3.33;;
67564;SDS011;54393;53.556;49.216;2022-08-21T09:56:34;3.45;;;3.22;;
67564;SDS011;54393;53.556;49.216;2022-08-21T09:59:29;3.28;;;3.05;;
67564;SDS011;54393;53.556;49.216;2022-08-21T10:01:58;3.33;;;3.10;;
67564;SDS011;54393;53.556;49.216;2022-08-21T10:04:31;3.78;;;3.15;;
67564;SDS011;54393;53.556;49.216;2022-08-21T10:07:11;3.47;;;3.28;;
67564;SDS011;54393;53.556;49.216;2022-08-21T10:09:40;3.28;;;3.08;;
67564;SDS011;54393;53.556;49.216;2022-08-21T10:12:13;3.05;;;2.80;;
67564;SDS011;54393;53.556;49.216;2022-08-21T10:15:03;4.03;;;3.72;;
67564;SDS011;54393;53.556;49.216;2022-08-21T10:20:40;3.15;;;2.95;;
67564;SDS011;54393;53.556;49.216;2022-08-21T10:26:02;3.33;;;3.00;;
67564;SDS011;54393;53.556;49.216;2022-08-21T10:37:18;3.25;;;3.05;;
67564;SDS011;54393;53.556;49.216;2022-08-21T10:42:31;3.35;;;3.15;;
67564;SDS011;54393;53.556;49.216;2022-08-21T10:45:45;3.87;;;2.85;;
67564;SDS011;54393;53.556;49.216;2022-08-21T10:48:35;3.30;;;2.95;;
67564;SDS011;54393;53.556;49.216;2022-08-21T10:59:18;3.20;;;3.00;;
67564;SDS011;54393;53.556;49.216;2022-08-21T11:06:57;3.42;;;3.22;;
67564;SDS011;54393;53.556;49.216;2022-08-21T11:09:31;3.30;;;3.00;;
67564;SDS011;54393;53.556;49.216;2022-08-21T11:12:23;3.55;;;3.28;;
67564;SDS011;54393;53.556;49.216;2022-08-21T11:17:36;3.42;;;3.20;;
67564;SDS011;54393;53.556;49.216;2022-08-21T11:25:41;3.10;;;2.90;;
67564;SDS011;54393;53.556;49.216;2022-08-21T11:30:43;3.25;;;3.00;;
67564;SDS011;54393;53.556;49.216;2022-08-21T11:52:51;4.68;;;2.67;;
67564;SDS011;54393;53.556;49.216;2022-08-21T11:55:32;3.50;;;3.30;;
67564;SDS011;54393;53.556;49.216;2022-08-21T12:00:50;3.20;;;3.00;;
67564;SDS011;54393;53.556;49.216;2022-08-21T12:03:40;3.03;;;2.70;;
67564;SDS011;54393;53.556;49.216;2022-08-21T12:06:29;3.53;;;3.33;;
67564;SDS011;54393;53.556;49.216;2022-08-21T12:09:03;3.22;;;3.03;;
67564;SDS011;54393;53.556;49.216;2022-08-21T12:11:43;3.25;;;3.05;;
67564;SDS011;54393;53.556;49.216;2022-08-21T12:14:17;3.50;;;3.05;;
67564;SDS011;54393;53.556;49.216;2022-08-21T12:16:47;2.50;;;2.40;;
67564;SDS011;54393;53.556;49.216;2022-08-21T12:21:51;3.42;;;3.08;;
67564;SDS011;54393;53.556;49.216;2022-08-21T12:24:42;3.03;;;2.83;;
67564;SDS011;54393;53.556;49.216;2022-08-21T12:27:28;3.45;;;3.22;;
67564;SDS011;54393;53.556;49.216;2022-08-21T12:29:59;3.17;;;2.97;;
67564;SDS011;54393;53.556;49.216;2022-08-21T12:32:54;3.22;;;2.92;;
67564;SDS011;54393;53.556;49.216;2022-08-21T12:35:23;3.35;;;3.15;;
67564;SDS011;54393;53.556;49.216;2022-08-21T12:37:52;2.85;;;2.65;;
67564;SDS011;54393;53.556;49.216;2022-08-21T12:40:49;3.83;;;2.75;;
67564;SDS011;54393;53.556;49.216;2022-08-21T12:43:28;3.17;;;2.83;;
67564;SDS011;54393;53.556;49.216;2022-08-21T12:45:59;3.00;;;2.80;;
67564;SDS011;54393;53.556;49.216;2022-08-21T12:50:58;2.78;;;2.58;;
67564;SDS011;54393;53.556;49.216;2022-08-21T12:53:44;3.20;;;2.90;;
67564;SDS011;54393;53.556;49.216;2022-08-21T12:56:15;3.33;;;3.03;;
67564;SDS011;54393;53.556;49.216;2022-08-21T12:58:47;2.95;;;2.75;;
67564;SDS011;54393;53.556;49.216;2022-08-21T13:04:01;3.22;;;3.03;;
67564;SDS011;54393;53.556;49.216;2022-08-21T13:06:32;3.12;;;2.92;;
67564;SDS011;54393;53.556;49.216;2022-08-21T13:09:04;3.30;;;3.10;;
67564;SDS011;54393;53.556;49.216;2022-08-21T13:11:42;3.20;;;3.00;;
67564;SDS011;54393;53.556;49.216;2022-08-21T13:14:33;3.58;;;3.25;;
67564;SDS011;54393;53.556;49.216;2022-08-21T13:16:59;2.80;;;2.60;;
67564;SDS011;54393;53.556;49.216;2022-08-21T13:19:26;3.20;;;2.85;;
67564;SDS011;54393;53.556;49.216;2022-08-21T13:21:54;2.67;;;2.53;;
67564;SDS011;54393;53.556;49.216;2022-08-21T13:24:26;3.12;;;2.92;;
67564;SDS011;54393;53.556;49.216;2022-08-21T13:26:54;2.53;;;2.42;;
67564;SDS011;54393;53.556;49.216;2022-08-21T13:29:22;3.00;;;2.80;;
67564;SDS011;54393;53.556;49.216;2022-08-21T13:31:55;2.50;;;2.40;;
67564;SDS011;54393;53.556;49.216;2022-08-21T13:34:24;2.72;;;2.53;;
67564;SDS011;54393;53.556;49.216;2022-08-21T13:36:55;2.72;;;2.30;;
67564;SDS011;54393;53.556;49.216;2022-08-21T13:39:24;2.92;;;2.72;;
67564;SDS011;54393;53.556;49.216;2022-08-21T13:41:52;2.80;;;2.40;;
67564;SDS011;54393;53.556;49.216;2022-08-21T13:44:30;2.97;;;2.78;;
67564;SDS011;54393;53.556;49.216;2022-08-21T13:47:02;2.92;;;2.72;;
67564;SDS011;54393;53.556;49.216;2022-08-21T13:49:34;3.20;;;3.00;;
67564;SDS011;54393;53.556;49.216;2022-08-21T13:52:05;2.85;;;2.65;;
67564;SDS011;54393;53.556;49.216;2022-08-21T13:54:51;3.00;;;2.80;;
67564;SDS011;54393;53.556;49.216;2022-08-21T13:57:38;2.92;;;2.72;;
67564;SDS011;54393;53.556;49.216;2022-08-21T14:00:27;3.08;;;2.87;;
67564;SDS011;54393;53.556;49.216;2022-08-21T14:02:59;3.05;;;2.85;;
67564;SDS011;54393;53.556;49.216;2022-08-21T14:05:33;3.12;;;2.92;;
67564;SDS011;54393;53.556;49.216;2022-08-21T14:08:10;2.90;;;2.70;;
67564;SDS011;54393;53.556;49.216;2022-08-21T14:10:49;3.05;;;2.85;;
67564;SDS011;54393;53.556;49.216;2022-08-21T14:16:21;2.90;;;2.70;;
67564;SDS011;54393;53.556;49.216;2022-08-21T14:19:07;2.90;;;2.70;;
67564;SDS011;54393;53.556;49.216;2022-08-21T14:21:43;2.75;;;2.55;;
67564;SDS011;54393;53.556;49.216;2022-08-21T14:27:11;2.67;;;2.58;;
67564;SDS011;54393;53.556;49.216;2022-08-21T14:29:41;3.15;;;2.95;;
67564;SDS011;54393;53.556;49.216;2022-08-21T14:32:34;3.37;;;3.00;;
67564;SDS011;54393;53.556;49.216;2022-08-21T14:34:59;3.00;;;2.80;;
67564;SDS011;54393;53.556;49.216;2022-08-21T14:37:26;3.50;;;3.20;;
67564;SDS011;54393;53.556;49.216;2022-08-21T14:39:52;2.78;;;2.67;;
67564;SDS011;54393;53.556;49.216;2022-08-21T14:42:19;2.80;;;2.60;;
67564;SDS011;54393;53.556;49.216;2022-08-21T14:44:45;3.20;;;3.00;;
67564;SDS011;54393;53.556;49.216;2022-08-21T14:47:12;2.95;;;2.75;;
67564;SDS011;54393;53.556;49.216;2022-08-21T14:49:39;3.20;;;3.00;;
67564;SDS011;54393;53.556;49.216;2022-08-21T14:52:05;2.97;;;2.78;;
67564;SDS011;54393;53.556;49.216;2022-08-21T14:54:32;3.35;;;3.15;;
67564;SDS011;54393;53.556;49.216;2022-08-21T14:57:00;3.00;;;2.80;;
67564;SDS011;54393;53.556;49.216;2022-08-21T14:59:30;2.85;;;2.70;;
67564;SDS011;54393;53.556;49.216;2022-08-21T15:01:58;3.00;;;2.80;;
67564;SDS011;54393;53.556;49.216;2022-08-21T15:04:24;2.55;;;2.45;;
67564;SDS011;54393;53.556;49.216;2022-08-21T15:06:51;3.00;;;2.80;;
67564;SDS011;54393;53.556;49.216;2022-08-21T15:09:17;3.65;;;3.35;;
67564;SDS011;54393;53.556;49.216;2022-08-21T15:11:44;3.15;;;2.95;;
67564;SDS011;54393;53.556;49.216;2022-08-21T15:14:10;3.30;;;3.00;;
67564;SDS011;54393;53.556;49.216;2022-08-21T15:16:43;3.00;;;2.80;;
67564;SDS011;54393;53.556;49.216;2022-08-21T15:19:09;3.87;;;3.58;;
67564;SDS011;54393;53.556;49.216;2022-08-21T15:21:35;3.15;;;2.87;;
67564;SDS011;54393;53.556;49.216;2022-08-21T15:24:02;3.28;;;3.08;;
67564;SDS011;54393;53.556;49.216;2022-08-21T15:26:29;3.37;;;3.17;;
67564;SDS011;54393;53.556;49.216;2022-08-21T15:28:55;4.78;;;3.00;;
67564;SDS011;54393;53.556;49.216;2022-08-21T15:31:22;3.87;;;3.45;;
67564;SDS011;54393;53.556;49.216;2022-08-21T15:33:48;3.20;;;3.00;;
67564;SDS011;54393;53.556;49.216;2022-08-21T15:36:15;3.47;;;3.08;;
67564;SDS011;54393;53.556;49.216;2022-08-21T15:38:44;3.22;;;3.03;;
67564;SDS011;54393;53.556;49.216;2022-08-21T15:41:11;2.95;;;2.75;;
67564;SDS011;54393;53.556;49.216;2022-08-21T15:43:42;3.70;;;3.40;;
67564;SDS011;54393;53.556;49.216;2022-08-21T15:46:16;3.05;;;2.85;;
67564;SDS011;54393;53.556;49.216;2022-08-21T15:48:43;3.60;;;3.40;;
67564;SDS011;54393;53.556;49.216;2022-08-21T15:51:11;4.50;;;3.42;;
67564;SDS011;54393;53.556;49.216;2022-08-21T15:53:38;3.40;;;3.20;;
67564;SDS011;54393;53.556;49.216;2022-08-21T15:56:06;3.40;;;3.20;;
67564;SDS011;54393;53.556;49.216;2022-08-21T15:58:53;3.37;;;3.15;;
67564;SDS011;54393;53.556;49.216;2022-08-21T16:01:28;3.92;;;3.62;;
67564;SDS011;54393;53.556;49.216;2022-08-21T16:03:54;3.55;;;3.20;;
67564;SDS011;54393;53.556;49.216;2022-08-21T16:06:22;3.97;;;3.75;;
67564;SDS011;54393;53.556;49.216;2022-08-21T16:08:48;3.62;;;3.42;;
67564;SDS011;54393;53.556;49.216;2022-08-21T16:11:15;4.07;;;3.30;;
67564;SDS011;54393;53.556;49.216;2022-08-21T16:13:43;4.20;;;3.90;;
67564;SDS011;54393;53.556;49.216;2022-08-21T16:16:10;3.85;;;3.33;;
67564;SDS011;54393;53.556;49.216;2022-08-21T16:18:38;3.90;;;3.60;;
67564;SDS011;54393;53.556;49.216;2022-08-21T16:21:05;4.07;;;3.67;;
67564;SDS011;54393;53.556;49.216;2022-08-21T16:23:32;3.70;;;3.40;;
67564;SDS011;54393;53.556;49.216;2022-08-21T16:25:59;4.10;;;3.80;;
67564;SDS011;54393;53.556;49.216;2022-08-21T16:28:30;4.50;;;4.10;;
67564;SDS011;54393;53.556;49.216;2022-08-21T16:30:58;5.10;;;3.72;;
67564;SDS011;54393;53.556;49.216;2022-08-21T16:33:38;4.90;;;4.50;;